EGAC Airport Information

Runway Information
Runway 04 Length 6001 ft width 148 ft
Elevation 13 ft Threshold 303 ft Heading 35
Runway 22 Length 6001 ft Width 148 ft
Elevation 12 ft Threshold 0 ft Heading 215
Airport Frequencies
Type APP Name BELFAST AP Frequency 130.85 MHZ
Type ATIS Name ATIS Frequency 136.625 MHZ
Type TWR Name BELFAST TW Frequency 122.825 MHZ
Airport Navaids
Airport Weather Information & NOTAM
ADDS - METARS form results

(1828 UTC 19 January 2021)
Data provider http://aviationweather.gov/metar/data/
 
METAR text: EGAC 191820Z AUTO 02011KT 2400 RADZ SCT004/// BKN007/// OVC014/// 05/05 Q0986
Conditions at: EGAC (BELFAST HARBOUR , GB) observed 1820 UTC 19 January 2021
Temperature: 5.0°C (41°F)
Dewpoint: 5.0°C (41°F) [RH = 100%]
Pressure (altimeter): 29.11 inches Hg (986.0 mb)
Winds: from the NNE (20 degrees) at 13 MPH (11 knots; 5.7 m/s)
Visibility: 1.49 miles (2.40 km)
Ceiling: 700 feet AGL
Clouds: scattered clouds at 400 feet AGL
broken clouds at 700 feet AGL
overcast cloud deck at 1400 feet AGL
Weather: RA DZ  (moderate rain, moderate drizzle)

METAR text: EGAC 191750Z AUTO 03011KT 3300 DZ BKN004/// BKN007/// OVC022/// 05/05 Q0986
Conditions at: EGAC (BELFAST HARBOUR , GB) observed 1750 UTC 19 January 2021
Temperature: 5.0°C (41°F)
Dewpoint: 5.0°C (41°F) [RH = 100%]
Pressure (altimeter): 29.11 inches Hg (986.0 mb)
Winds: from the NNE (30 degrees) at 13 MPH (11 knots; 5.7 m/s)
Visibility: 2.05 miles (3.30 km)
Ceiling: 400 feet AGL
Clouds: broken clouds at 400 feet AGL
broken clouds at 700 feet AGL
overcast cloud deck at 2200 feet AGL
Weather: DZ  (moderate drizzle)

Forecast for: COR
Text: TAF COR EGAC 191738Z 1918/1922 04008KT 7000 -RA SCT008 BKN020
Forecast period: 1800 to 2200 UTC 19 January 2021
Forecast type: FROM: standard forecast or significant change
Winds: from the NE (40 degrees) at 9 MPH (8 knots; 4.1 m/s)
Visibility: 4 miles (7 km)
Ceiling: 2000 feet AGL
Clouds: scattered clouds at 800 feet AGL
broken clouds at 2000 feet AGL
Weather: -RA  (light rain)
Text: TEMPO 1918/1922 3000 RA BR SCT004 BKN007
Forecast period: 1800 to 2200 UTC 19 January 2021
Forecast type: TEMPORARY: The following changes expected for less than half the time period
Visibility: 1.86 miles (2.99 km)
Ceiling: 700 feet AGL
Clouds: scattered clouds at 400 feet AGL
broken clouds at 700 feet AGL
Weather: RA BR  (moderate rain, mist)
Text: PROB40 1918/1921 BKN002
Forecast period: 1800 to 2100 UTC 19 January 2021
Forecast type: PROBABLE: 40 percent likelihood of the following during this time
Visibility: missing
Ceiling: 200 feet AGL
Clouds: broken clouds at 200 feet AGL
Weather: no significant weather forecast for this period